sensor_id;sensor_type;location;lat;lon;timestamp;P1;durP1;ratioP1;P2;durP2;ratioP2
50429;SDS011;36359;41.556;-8.418;2024-01-10T00:01:43;20.07;;;14.07;;
50429;SDS011;36359;41.556;-8.418;2024-01-10T00:04:09;16.97;;;12.37;;
50429;SDS011;36359;41.556;-8.418;2024-01-10T00:06:34;16.67;;;12.30;;
50429;SDS011;36359;41.556;-8.418;2024-01-10T00:09:00;17.23;;;12.53;;
50429;SDS011;36359;41.556;-8.418;2024-01-10T00:11:26;20.63;;;14.90;;
50429;SDS011;36359;41.556;-8.418;2024-01-10T00:13:52;19.60;;;12.80;;
50429;SDS011;36359;41.556;-8.418;2024-01-10T00:16:17;16.03;;;12.40;;
50429;SDS011;36359;41.556;-8.418;2024-01-10T00:18:43;19.57;;;12.77;;
50429;SDS011;36359;41.556;-8.418;2024-01-10T00:21:10;17.63;;;12.30;;
50429;SDS011;36359;41.556;-8.418;2024-01-10T00:23:36;21.90;;;14.70;;
50429;SDS011;36359;41.556;-8.418;2024-01-10T00:26:02;21.37;;;15.57;;
50429;SDS011;36359;41.556;-8.418;2024-01-10T00:28:29;20.80;;;15.33;;
50429;SDS011;36359;41.556;-8.418;2024-01-10T00:30:54;18.83;;;13.80;;
50429;SDS011;36359;41.556;-8.418;2024-01-10T00:33:20;18.07;;;13.73;;
50429;SDS011;36359;41.556;-8.418;2024-01-10T00:35:46;13.93;;;11.30;;
50429;SDS011;36359;41.556;-8.418;2024-01-10T00:38:12;14.83;;;11.33;;
50429;SDS011;36359;41.556;-8.418;2024-01-10T00:40:38;15.70;;;11.30;;
50429;SDS011;36359;41.556;-8.418;2024-01-10T00:43:04;14.27;;;12.27;;
50429;SDS011;36359;41.556;-8.418;2024-01-10T00:45:30;16.70;;;13.03;;
50429;SDS011;36359;41.556;-8.418;2024-01-10T00:47:56;17.50;;;13.00;;
50429;SDS011;36359;41.556;-8.418;2024-01-10T00:50:21;17.53;;;11.67;;
50429;SDS011;36359;41.556;-8.418;2024-01-10T00:52:47;16.60;;;13.50;;
50429;SDS011;36359;41.556;-8.418;2024-01-10T00:55:13;15.87;;;12.53;;
50429;SDS011;36359;41.556;-8.418;2024-01-10T00:57:39;15.23;;;13.50;;
50429;SDS011;36359;41.556;-8.418;2024-01-10T01:00:08;18.40;;;14.13;;
50429;SDS011;36359;41.556;-8.418;2024-01-10T01:02:34;18.10;;;14.07;;
50429;SDS011;36359;41.556;-8.418;2024-01-10T01:05:01;17.97;;;14.13;;
50429;SDS011;36359;41.556;-8.418;2024-01-10T01:07:28;19.20;;;15.43;;
50429;SDS011;36359;41.556;-8.418;2024-01-10T01:09:53;16.47;;;13.63;;
50429;SDS011;36359;41.556;-8.418;2024-01-10T01:12:19;17.87;;;13.83;;
50429;SDS011;36359;41.556;-8.418;2024-01-10T01:14:45;18.00;;;13.83;;
50429;SDS011;36359;41.556;-8.418;2024-01-10T01:17:11;16.80;;;13.50;;
50429;SDS011;36359;41.556;-8.418;2024-01-10T01:19:36;15.90;;;12.73;;
50429;SDS011;36359;41.556;-8.418;2024-01-10T01:22:05;14.77;;;12.07;;
50429;SDS011;36359;41.556;-8.418;2024-01-10T01:24:31;16.33;;;11.53;;
50429;SDS011;36359;41.556;-8.418;2024-01-10T01:26:57;15.33;;;12.80;;
50429;SDS011;36359;41.556;-8.418;2024-01-10T01:29:23;18.27;;;14.00;;
50429;SDS011;36359;41.556;-8.418;2024-01-10T01:31:49;15.13;;;12.67;;
50429;SDS011;36359;41.556;-8.418;2024-01-10T01:34:15;13.50;;;11.70;;
50429;SDS011;36359;41.556;-8.418;2024-01-10T01:36:40;15.53;;;12.30;;
50429;SDS011;36359;41.556;-8.418;2024-01-10T01:39:06;13.50;;;11.60;;
50429;SDS011;36359;41.556;-8.418;2024-01-10T01:41:32;13.77;;;11.17;;
50429;SDS011;36359;41.556;-8.418;2024-01-10T01:43:58;14.17;;;11.77;;
50429;SDS011;36359;41.556;-8.418;2024-01-10T01:46:24;15.43;;;12.43;;
50429;SDS011;36359;41.556;-8.418;2024-01-10T01:48:50;15.00;;;11.93;;
50429;SDS011;36359;41.556;-8.418;2024-01-10T01:51:17;14.77;;;11.57;;
50429;SDS011;36359;41.556;-8.418;2024-01-10T01:53:46;15.80;;;12.50;;
50429;SDS011;36359;41.556;-8.418;2024-01-10T01:56:14;14.33;;;12.07;;
50429;SDS011;36359;41.556;-8.418;2024-01-10T01:58:41;16.53;;;12.67;;
50429;SDS011;36359;41.556;-8.418;2024-01-10T02:01:08;16.37;;;11.97;;
50429;SDS011;36359;41.556;-8.418;2024-01-10T02:03:36;15.67;;;13.10;;
50429;SDS011;36359;41.556;-8.418;2024-01-10T02:06:02;15.90;;;12.70;;
50429;SDS011;36359;41.556;-8.418;2024-01-10T02:08:29;18.23;;;13.27;;
50429;SDS011;36359;41.556;-8.418;2024-01-10T02:10:57;24.93;;;18.63;;
50429;SDS011;36359;41.556;-8.418;2024-01-10T02:13:23;102.70;;;38.17;;
50429;SDS011;36359;41.556;-8.418;2024-01-10T02:15:49;37.10;;;29.27;;
50429;SDS011;36359;41.556;-8.418;2024-01-10T02:18:16;53.97;;;34.47;;
50429;SDS011;36359;41.556;-8.418;2024-01-10T02:20:43;63.73;;;41.20;;
50429;SDS011;36359;41.556;-8.418;2024-01-10T02:23:09;73.97;;;42.60;;
50429;SDS011;36359;41.556;-8.418;2024-01-10T02:25:35;97.03;;;47.27;;
50429;SDS011;36359;41.556;-8.418;2024-01-10T02:28:00;63.63;;;42.87;;
50429;SDS011;36359;41.556;-8.418;2024-01-10T02:30:26;63.30;;;43.60;;
50429;SDS011;36359;41.556;-8.418;2024-01-10T02:32:52;67.77;;;45.23;;
50429;SDS011;36359;41.556;-8.418;2024-01-10T02:35:17;70.37;;;46.00;;
50429;SDS011;36359;41.556;-8.418;2024-01-10T02:37:43;97.50;;;49.97;;
50429;SDS011;36359;41.556;-8.418;2024-01-10T02:40:10;76.77;;;48.70;;
50429;SDS011;36359;41.556;-8.418;2024-01-10T02:42:36;64.77;;;43.93;;
50429;SDS011;36359;41.556;-8.418;2024-01-10T02:45:02;68.17;;;47.23;;
50429;SDS011;36359;41.556;-8.418;2024-01-10T02:47:28;58.67;;;43.70;;
50429;SDS011;36359;41.556;-8.418;2024-01-10T02:49:54;59.73;;;44.30;;
50429;SDS011;36359;41.556;-8.418;2024-01-10T02:52:20;62.20;;;44.70;;
50429;SDS011;36359;41.556;-8.418;2024-01-10T02:54:46;64.13;;;44.90;;
50429;SDS011;36359;41.556;-8.418;2024-01-10T02:57:12;54.23;;;41.00;;
50429;SDS011;36359;41.556;-8.418;2024-01-10T02:59:38;59.30;;;43.53;;
50429;SDS011;36359;41.556;-8.418;2024-01-10T03:02:04;59.57;;;44.17;;
50429;SDS011;36359;41.556;-8.418;2024-01-10T03:04:30;60.87;;;43.93;;
50429;SDS011;36359;41.556;-8.418;2024-01-10T03:06:56;59.30;;;41.77;;
50429;SDS011;36359;41.556;-8.418;2024-01-10T03:09:23;70.30;;;46.97;;
50429;SDS011;36359;41.556;-8.418;2024-01-10T03:11:49;65.67;;;45.30;;
50429;SDS011;36359;41.556;-8.418;2024-01-10T03:14:14;84.03;;;46.40;;
50429;SDS011;36359;41.556;-8.418;2024-01-10T03:16:40;58.67;;;43.63;;
50429;SDS011;36359;41.556;-8.418;2024-01-10T03:19:06;74.20;;;45.17;;
50429;SDS011;36359;41.556;-8.418;2024-01-10T03:21:32;154.30;;;45.97;;
50429;SDS011;36359;41.556;-8.418;2024-01-10T03:23:58;159.60;;;43.23;;
50429;SDS011;36359;41.556;-8.418;2024-01-10T03:26:26;69.30;;;39.50;;
50429;SDS011;36359;41.556;-8.418;2024-01-10T03:28:53;66.13;;;40.93;;
50429;SDS011;36359;41.556;-8.418;2024-01-10T03:31:19;142.93;;;44.37;;
50429;SDS011;36359;41.556;-8.418;2024-01-10T03:33:45;51.83;;;39.50;;
50429;SDS011;36359;41.556;-8.418;2024-01-10T03:36:13;45.50;;;36.00;;
50429;SDS011;36359;41.556;-8.418;2024-01-10T03:38:40;45.57;;;35.77;;
50429;SDS011;36359;41.556;-8.418;2024-01-10T03:41:05;43.83;;;34.47;;
50429;SDS011;36359;41.556;-8.418;2024-01-10T03:43:31;43.63;;;33.70;;
50429;SDS011;36359;41.556;-8.418;2024-01-10T03:45:57;38.83;;;31.47;;
50429;SDS011;36359;41.556;-8.418;2024-01-10T03:48:23;34.47;;;28.87;;
50429;SDS011;36359;41.556;-8.418;2024-01-10T03:50:50;28.77;;;23.60;;
50429;SDS011;36359;41.556;-8.418;2024-01-10T03:53:16;30.23;;;23.60;;
50429;SDS011;36359;41.556;-8.418;2024-01-10T03:55:41;30.57;;;23.73;;
50429;SDS011;36359;41.556;-8.418;2024-01-10T03:58:07;26.93;;;21.93;;
50429;SDS011;36359;41.556;-8.418;2024-01-10T04:00:33;24.60;;;20.23;;
50429;SDS011;36359;41.556;-8.418;2024-01-10T04:02:59;24.90;;;20.70;;
50429;SDS011;36359;41.556;-8.418;2024-01-10T04:05:24;25.40;;;19.87;;
50429;SDS011;36359;41.556;-8.418;2024-01-10T04:07:51;23.57;;;19.07;;
50429;SDS011;36359;41.556;-8.418;2024-01-10T04:10:17;24.17;;;19.07;;
50429;SDS011;36359;41.556;-8.418;2024-01-10T04:12:43;22.77;;;19.27;;
50429;SDS011;36359;41.556;-8.418;2024-01-10T04:15:10;24.23;;;20.00;;
50429;SDS011;36359;41.556;-8.418;2024-01-10T04:17:37;21.87;;;17.70;;
50429;SDS011;36359;41.556;-8.418;2024-01-10T04:20:03;20.67;;;16.07;;
50429;SDS011;36359;41.556;-8.418;2024-01-10T04:22:29;18.23;;;14.27;;
50429;SDS011;36359;41.556;-8.418;2024-01-10T04:24:57;17.40;;;13.87;;
50429;SDS011;36359;41.556;-8.418;2024-01-10T04:27:23;15.83;;;12.27;;
50429;SDS011;36359;41.556;-8.418;2024-01-10T04:29:48;16.20;;;13.17;;
50429;SDS011;36359;41.556;-8.418;2024-01-10T04:32:14;15.83;;;13.10;;
50429;SDS011;36359;41.556;-8.418;2024-01-10T04:34:40;15.13;;;11.70;;
50429;SDS011;36359;41.556;-8.418;2024-01-10T04:37:05;14.17;;;11.97;;
50429;SDS011;36359;41.556;-8.418;2024-01-10T04:39:34;15.80;;;13.40;;
50429;SDS011;36359;41.556;-8.418;2024-01-10T04:42:00;13.80;;;11.37;;
50429;SDS011;36359;41.556;-8.418;2024-01-10T04:44:27;13.37;;;10.93;;
50429;SDS011;36359;41.556;-8.418;2024-01-10T04:46:52;12.03;;;10.07;;
50429;SDS011;36359;41.556;-8.418;2024-01-10T04:49:19;12.27;;;10.00;;
50429;SDS011;36359;41.556;-8.418;2024-01-10T04:51:45;11.47;;;10.27;;
50429;SDS011;36359;41.556;-8.418;2024-01-10T04:54:11;12.70;;;9.77;;
50429;SDS011;36359;41.556;-8.418;2024-01-10T04:56:37;12.60;;;9.27;;
50429;SDS011;36359;41.556;-8.418;2024-01-10T04:59:04;12.80;;;9.60;;
50429;SDS011;36359;41.556;-8.418;2024-01-10T05:01:30;15.40;;;10.90;;
50429;SDS011;36359;41.556;-8.418;2024-01-10T05:03:57;14.30;;;11.57;;
50429;SDS011;36359;41.556;-8.418;2024-01-10T05:06:22;12.93;;;10.97;;
50429;SDS011;36359;41.556;-8.418;2024-01-10T05:08:48;13.83;;;11.10;;
50429;SDS011;36359;41.556;-8.418;2024-01-10T05:11:14;14.40;;;11.63;;
50429;SDS011;36359;41.556;-8.418;2024-01-10T05:13:42;12.63;;;11.17;;
50429;SDS011;36359;41.556;-8.418;2024-01-10T05:16:08;13.73;;;11.37;;
50429;SDS011;36359;41.556;-8.418;2024-01-10T05:18:34;12.67;;;10.67;;
50429;SDS011;36359;41.556;-8.418;2024-01-10T05:21:00;13.73;;;12.30;;
50429;SDS011;36359;41.556;-8.418;2024-01-10T05:23:26;15.83;;;13.47;;
50429;SDS011;36359;41.556;-8.418;2024-01-10T05:25:53;17.33;;;13.27;;
50429;SDS011;36359;41.556;-8.418;2024-01-10T05:28:19;15.83;;;13.10;;
50429;SDS011;36359;41.556;-8.418;2024-01-10T05:30:44;17.50;;;13.73;;
50429;SDS011;36359;41.556;-8.418;2024-01-10T05:33:10;18.47;;;14.63;;
50429;SDS011;36359;41.556;-8.418;2024-01-10T05:35:39;22.17;;;15.27;;
50429;SDS011;36359;41.556;-8.418;2024-01-10T05:38:05;19.13;;;16.03;;
50429;SDS011;36359;41.556;-8.418;2024-01-10T05:40:31;21.27;;;15.97;;
50429;SDS011;36359;41.556;-8.418;2024-01-10T05:42:57;22.37;;;17.80;;
50429;SDS011;36359;41.556;-8.418;2024-01-10T05:45:26;32.30;;;20.27;;
50429;SDS011;36359;41.556;-8.418;2024-01-10T05:47:53;42.00;;;19.80;;
50429;SDS011;36359;41.556;-8.418;2024-01-10T05:50:20;25.73;;;20.30;;
50429;SDS011;36359;41.556;-8.418;2024-01-10T05:52:47;30.03;;;23.90;;
50429;SDS011;36359;41.556;-8.418;2024-01-10T05:55:12;31.43;;;24.97;;
50429;SDS011;36359;41.556;-8.418;2024-01-10T05:57:38;29.43;;;24.43;;
50429;SDS011;36359;41.556;-8.418;2024-01-10T06:00:05;31.47;;;24.23;;
50429;SDS011;36359;41.556;-8.418;2024-01-10T06:02:41;30.97;;;24.63;;
50429;SDS011;36359;41.556;-8.418;2024-01-10T06:05:07;26.37;;;22.70;;
50429;SDS011;36359;41.556;-8.418;2024-01-10T06:07:37;28.00;;;22.63;;
50429;SDS011;36359;41.556;-8.418;2024-01-10T06:10:04;26.63;;;22.70;;
50429;SDS011;36359;41.556;-8.418;2024-01-10T06:12:31;27.23;;;22.17;;
50429;SDS011;36359;41.556;-8.418;2024-01-10T06:14:57;28.73;;;23.23;;
50429;SDS011;36359;41.556;-8.418;2024-01-10T06:17:22;28.53;;;23.10;;
50429;SDS011;36359;41.556;-8.418;2024-01-10T06:19:49;29.87;;;23.50;;
50429;SDS011;36359;41.556;-8.418;2024-01-10T06:22:15;33.40;;;23.30;;
50429;SDS011;36359;41.556;-8.418;2024-01-10T06:24:42;35.90;;;24.53;;
50429;SDS011;36359;41.556;-8.418;2024-01-10T06:27:08;34.83;;;23.97;;
50429;SDS011;36359;41.556;-8.418;2024-01-10T06:29:35;31.43;;;25.73;;
50429;SDS011;36359;41.556;-8.418;2024-01-10T06:32:02;28.70;;;24.00;;
50429;SDS011;36359;41.556;-8.418;2024-01-10T06:34:29;29.47;;;24.47;;
50429;SDS011;36359;41.556;-8.418;2024-01-10T06:36:55;29.90;;;23.23;;
50429;SDS011;36359;41.556;-8.418;2024-01-10T06:39:20;29.90;;;25.10;;
50429;SDS011;36359;41.556;-8.418;2024-01-10T06:41:47;36.20;;;28.60;;
50429;SDS011;36359;41.556;-8.418;2024-01-10T06:44:13;37.00;;;27.87;;
50429;SDS011;36359;41.556;-8.418;2024-01-10T06:46:39;33.30;;;27.40;;
50429;SDS011;36359;41.556;-8.418;2024-01-10T06:49:04;34.40;;;28.20;;
50429;SDS011;36359;41.556;-8.418;2024-01-10T06:51:32;34.50;;;26.93;;
50429;SDS011;36359;41.556;-8.418;2024-01-10T06:53:58;35.13;;;27.73;;
50429;SDS011;36359;41.556;-8.418;2024-01-10T06:56:33;37.00;;;28.20;;
50429;SDS011;36359;41.556;-8.418;2024-01-10T06:58:59;36.07;;;27.70;;
50429;SDS011;36359;41.556;-8.418;2024-01-10T07:01:25;31.07;;;24.30;;
50429;SDS011;36359;41.556;-8.418;2024-01-10T07:03:52;43.73;;;26.07;;
50429;SDS011;36359;41.556;-8.418;2024-01-10T07:06:20;53.70;;;23.97;;
50429;SDS011;36359;41.556;-8.418;2024-01-10T07:08:47;44.57;;;25.17;;
50429;SDS011;36359;41.556;-8.418;2024-01-10T07:11:14;32.50;;;24.13;;
50429;SDS011;36359;41.556;-8.418;2024-01-10T07:13:40;39.53;;;22.93;;
50429;SDS011;36359;41.556;-8.418;2024-01-10T07:16:07;36.57;;;25.00;;
50429;SDS011;36359;41.556;-8.418;2024-01-10T07:18:33;30.07;;;22.27;;
50429;SDS011;36359;41.556;-8.418;2024-01-10T07:20:59;33.63;;;24.00;;
50429;SDS011;36359;41.556;-8.418;2024-01-10T07:23:24;31.73;;;20.77;;
50429;SDS011;36359;41.556;-8.418;2024-01-10T07:25:51;25.73;;;19.27;;
50429;SDS011;36359;41.556;-8.418;2024-01-10T07:28:17;23.47;;;17.77;;
50429;SDS011;36359;41.556;-8.418;2024-01-10T07:30:43;22.63;;;18.40;;
50429;SDS011;36359;41.556;-8.418;2024-01-10T07:33:10;22.57;;;17.80;;
50429;SDS011;36359;41.556;-8.418;2024-01-10T07:35:36;24.13;;;18.47;;
50429;SDS011;36359;41.556;-8.418;2024-01-10T07:38:03;22.77;;;18.70;;
50429;SDS011;36359;41.556;-8.418;2024-01-10T07:40:33;24.10;;;20.23;;
50429;SDS011;36359;41.556;-8.418;2024-01-10T07:42:59;22.03;;;18.03;;
50429;SDS011;36359;41.556;-8.418;2024-01-10T07:45:26;21.73;;;17.30;;
50429;SDS011;36359;41.556;-8.418;2024-01-10T07:47:52;21.03;;;17.40;;
50429;SDS011;36359;41.556;-8.418;2024-01-10T07:50:18;22.57;;;18.73;;
50429;SDS011;36359;41.556;-8.418;2024-01-10T07:52:44;22.40;;;19.33;;
50429;SDS011;36359;41.556;-8.418;2024-01-10T07:55:11;22.50;;;18.27;;
50429;SDS011;36359;41.556;-8.418;2024-01-10T07:57:37;19.77;;;16.17;;
50429;SDS011;36359;41.556;-8.418;2024-01-10T08:00:06;20.90;;;17.03;;
50429;SDS011;36359;41.556;-8.418;2024-01-10T08:02:36;20.73;;;16.73;;
50429;SDS011;36359;41.556;-8.418;2024-01-10T08:05:02;17.27;;;14.73;;
50429;SDS011;36359;41.556;-8.418;2024-01-10T08:07:34;20.80;;;15.87;;
50429;SDS011;36359;41.556;-8.418;2024-01-10T08:10:05;21.00;;;16.93;;
50429;SDS011;36359;41.556;-8.418;2024-01-10T08:12:31;21.70;;;17.37;;
50429;SDS011;36359;41.556;-8.418;2024-01-10T08:14:57;17.30;;;14.97;;
50429;SDS011;36359;41.556;-8.418;2024-01-10T08:17:23;16.63;;;14.60;;
50429;SDS011;36359;41.556;-8.418;2024-01-10T08:19:49;16.80;;;14.90;;
50429;SDS011;36359;41.556;-8.418;2024-01-10T08:22:15;17.30;;;14.23;;
50429;SDS011;36359;41.556;-8.418;2024-01-10T08:24:41;25.97;;;19.80;;
50429;SDS011;36359;41.556;-8.418;2024-01-10T08:27:07;27.77;;;22.53;;
50429;SDS011;36359;41.556;-8.418;2024-01-10T08:29:33;28.63;;;24.10;;
50429;SDS011;36359;41.556;-8.418;2024-01-10T08:31:59;29.37;;;23.33;;
50429;SDS011;36359;41.556;-8.418;2024-01-10T08:34:24;24.63;;;19.97;;
50429;SDS011;36359;41.556;-8.418;2024-01-10T08:36:51;26.17;;;20.50;;
50429;SDS011;36359;41.556;-8.418;2024-01-10T08:39:17;23.50;;;20.40;;
50429;SDS011;36359;41.556;-8.418;2024-01-10T08:41:43;24.80;;;18.60;;
50429;SDS011;36359;41.556;-8.418;2024-01-10T08:44:12;21.23;;;17.20;;
50429;SDS011;36359;41.556;-8.418;2024-01-10T08:46:38;22.23;;;17.27;;
50429;SDS011;36359;41.556;-8.418;2024-01-10T08:49:04;23.27;;;18.03;;
50429;SDS011;36359;41.556;-8.418;2024-01-10T08:51:30;23.13;;;19.40;;
50429;SDS011;36359;41.556;-8.418;2024-01-10T08:53:56;26.73;;;21.03;;
50429;SDS011;36359;41.556;-8.418;2024-01-10T08:56:22;23.90;;;20.00;;
50429;SDS011;36359;41.556;-8.418;2024-01-10T08:58:49;22.57;;;18.30;;
50429;SDS011;36359;41.556;-8.418;2024-01-10T09:01:16;43.43;;;29.47;;
50429;SDS011;36359;41.556;-8.418;2024-01-10T09:03:42;37.63;;;26.50;;
50429;SDS011;36359;41.556;-8.418;2024-01-10T09:06:07;36.93;;;28.67;;
50429;SDS011;36359;41.556;-8.418;2024-01-10T09:08:35;34.47;;;24.80;;
50429;SDS011;36359;41.556;-8.418;2024-01-10T09:11:04;26.07;;;20.77;;
50429;SDS011;36359;41.556;-8.418;2024-01-10T09:13:31;24.30;;;17.83;;
50429;SDS011;36359;41.556;-8.418;2024-01-10T09:15:57;33.27;;;18.80;;
50429;SDS011;36359;41.556;-8.418;2024-01-10T09:18:22;36.47;;;21.47;;
50429;SDS011;36359;41.556;-8.418;2024-01-10T09:20:48;33.40;;;21.37;;
50429;SDS011;36359;41.556;-8.418;2024-01-10T09:23:14;26.17;;;19.23;;
50429;SDS011;36359;41.556;-8.418;2024-01-10T09:25:40;31.33;;;20.70;;
50429;SDS011;36359;41.556;-8.418;2024-01-10T09:28:07;25.27;;;18.03;;
50429;SDS011;36359;41.556;-8.418;2024-01-10T09:30:33;22.83;;;17.87;;
50429;SDS011;36359;41.556;-8.418;2024-01-10T09:32:59;18.20;;;14.20;;
50429;SDS011;36359;41.556;-8.418;2024-01-10T09:35:26;25.03;;;17.60;;
50429;SDS011;36359;41.556;-8.418;2024-01-10T09:37:52;22.97;;;17.67;;
50429;SDS011;36359;41.556;-8.418;2024-01-10T09:40:21;21.90;;;16.87;;
50429;SDS011;36359;41.556;-8.418;2024-01-10T09:42:50;21.07;;;17.17;;
50429;SDS011;36359;41.556;-8.418;2024-01-10T09:45:20;28.50;;;23.03;;
50429;SDS011;36359;41.556;-8.418;2024-01-10T09:47:48;27.67;;;23.47;;
50429;SDS011;36359;41.556;-8.418;2024-01-10T09:50:17;32.60;;;24.80;;
50429;SDS011;36359;41.556;-8.418;2024-01-10T09:52:52;30.87;;;25.50;;
50429;SDS011;36359;41.556;-8.418;2024-01-10T09:55:22;35.53;;;27.33;;
50429;SDS011;36359;41.556;-8.418;2024-01-10T09:57:51;33.37;;;28.27;;
50429;SDS011;36359;41.556;-8.418;2024-01-10T10:00:17;31.80;;;26.03;;
50429;SDS011;36359;41.556;-8.418;2024-01-10T10:02:43;31.77;;;26.37;;
50429;SDS011;36359;41.556;-8.418;2024-01-10T10:05:13;74.30;;;43.73;;
50429;SDS011;36359;41.556;-8.418;2024-01-10T10:07:50;49.90;;;34.30;;
50429;SDS011;36359;41.556;-8.418;2024-01-10T10:10:18;33.10;;;27.47;;
50429;SDS011;36359;41.556;-8.418;2024-01-10T10:12:49;34.13;;;27.23;;
50429;SDS011;36359;41.556;-8.418;2024-01-10T10:15:18;32.57;;;26.30;;
50429;SDS011;36359;41.556;-8.418;2024-01-10T10:17:47;33.03;;;25.07;;
50429;SDS011;36359;41.556;-8.418;2024-01-10T10:22:57;28.83;;;22.43;;
50429;SDS011;36359;41.556;-8.418;2024-01-10T10:25:33;26.87;;;23.53;;
50429;SDS011;36359;41.556;-8.418;2024-01-10T10:28:01;36.47;;;26.80;;
50429;SDS011;36359;41.556;-8.418;2024-01-10T10:30:30;33.20;;;26.93;;
50429;SDS011;36359;41.556;-8.418;2024-01-10T10:32:57;34.00;;;26.97;;
50429;SDS011;36359;41.556;-8.418;2024-01-10T10:35:23;40.20;;;32.17;;
50429;SDS011;36359;41.556;-8.418;2024-01-10T10:37:50;40.13;;;30.90;;
50429;SDS011;36359;41.556;-8.418;2024-01-10T10:40:17;34.23;;;28.43;;
50429;SDS011;36359;41.556;-8.418;2024-01-10T10:42:44;31.00;;;27.37;;
50429;SDS011;36359;41.556;-8.418;2024-01-10T10:45:15;33.90;;;26.50;;
50429;SDS011;36359;41.556;-8.418;2024-01-10T10:47:52;32.40;;;28.03;;
50429;SDS011;36359;41.556;-8.418;2024-01-10T10:50:26;28.40;;;25.17;;
50429;SDS011;36359;41.556;-8.418;2024-01-10T10:52:54;30.57;;;26.53;;
50429;SDS011;36359;41.556;-8.418;2024-01-10T10:55:21;33.60;;;27.13;;
50429;SDS011;36359;41.556;-8.418;2024-01-10T10:57:49;31.70;;;26.27;;
50429;SDS011;36359;41.556;-8.418;2024-01-10T11:00:16;30.40;;;24.30;;
50429;SDS011;36359;41.556;-8.418;2024-01-10T11:02:44;28.80;;;23.77;;
50429;SDS011;36359;41.556;-8.418;2024-01-10T11:05:10;32.13;;;23.53;;
50429;SDS011;36359;41.556;-8.418;2024-01-10T11:07:40;25.70;;;20.67;;
50429;SDS011;36359;41.556;-8.418;2024-01-10T11:10:14;28.20;;;22.95;;
50429;SDS011;36359;41.556;-8.418;2024-01-10T11:24:23;45.95;;;30.05;;
50429;SDS011;36359;41.556;-8.418;2024-01-10T11:26:50;44.63;;;31.97;;
50429;SDS011;36359;41.556;-8.418;2024-01-10T11:29:16;42.83;;;31.83;;
50429;SDS011;36359;41.556;-8.418;2024-01-10T11:31:41;34.13;;;29.43;;
50429;SDS011;36359;41.556;-8.418;2024-01-10T11:34:16;34.30;;;25.93;;
50429;SDS011;36359;41.556;-8.418;2024-01-10T11:37:00;31.93;;;24.47;;
50429;SDS011;36359;41.556;-8.418;2024-01-10T11:39:35;35.07;;;26.93;;
50429;SDS011;36359;41.556;-8.418;2024-01-10T11:42:01;36.97;;;30.03;;
50429;SDS011;36359;41.556;-8.418;2024-01-10T11:44:27;37.93;;;26.80;;
50429;SDS011;36359;41.556;-8.418;2024-01-10T11:46:53;33.97;;;27.77;;
50429;SDS011;36359;41.556;-8.418;2024-01-10T11:49:20;34.63;;;27.17;;
50429;SDS011;36359;41.556;-8.418;2024-01-10T11:51:48;31.97;;;23.60;;
50429;SDS011;36359;41.556;-8.418;2024-01-10T11:57:03;31.37;;;24.50;;
50429;SDS011;36359;41.556;-8.418;2024-01-10T11:59:33;28.43;;;22.43;;
50429;SDS011;36359;41.556;-8.418;2024-01-10T12:01:59;26.07;;;19.90;;
50429;SDS011;36359;41.556;-8.418;2024-01-10T12:04:25;33.37;;;25.67;;
50429;SDS011;36359;41.556;-8.418;2024-01-10T12:06:55;35.20;;;27.83;;
50429;SDS011;36359;41.556;-8.418;2024-01-10T12:09:22;44.57;;;30.47;;
50429;SDS011;36359;41.556;-8.418;2024-01-10T12:11:49;37.50;;;29.30;;
50429;SDS011;36359;41.556;-8.418;2024-01-10T12:14:15;30.40;;;25.90;;
50429;SDS011;36359;41.556;-8.418;2024-01-10T12:16:42;29.10;;;23.43;;
50429;SDS011;36359;41.556;-8.418;2024-01-10T12:19:08;33.37;;;25.33;;
50429;SDS011;36359;41.556;-8.418;2024-01-10T12:21:34;35.50;;;26.47;;
50429;SDS011;36359;41.556;-8.418;2024-01-10T12:24:00;32.77;;;26.37;;
50429;SDS011;36359;41.556;-8.418;2024-01-10T12:26:31;29.60;;;23.48;;
50429;SDS011;36359;41.556;-8.418;2024-01-10T12:28:57;38.57;;;27.43;;
50429;SDS011;36359;41.556;-8.418;2024-01-10T12:31:26;32.67;;;25.83;;
50429;SDS011;36359;41.556;-8.418;2024-01-10T12:33:52;32.83;;;25.40;;
50429;SDS011;36359;41.556;-8.418;2024-01-10T12:36:20;39.53;;;30.23;;
50429;SDS011;36359;41.556;-8.418;2024-01-10T12:38:46;41.30;;;30.73;;
50429;SDS011;36359;41.556;-8.418;2024-01-10T12:41:14;47.77;;;33.73;;
50429;SDS011;36359;41.556;-8.418;2024-01-10T12:43:40;44.57;;;34.10;;
50429;SDS011;36359;41.556;-8.418;2024-01-10T12:46:07;44.17;;;33.27;;
50429;SDS011;36359;41.556;-8.418;2024-01-10T12:48:40;42.78;;;32.90;;
50429;SDS011;36359;41.556;-8.418;2024-01-10T12:51:07;42.43;;;32.90;;
50429;SDS011;36359;41.556;-8.418;2024-01-10T12:53:43;42.37;;;29.43;;
50429;SDS011;36359;41.556;-8.418;2024-01-10T12:56:10;36.97;;;29.43;;
50429;SDS011;36359;41.556;-8.418;2024-01-10T12:58:40;42.58;;;31.98;;
50429;SDS011;36359;41.556;-8.418;2024-01-10T13:01:10;36.57;;;28.80;;
50429;SDS011;36359;41.556;-8.418;2024-01-10T13:03:39;41.13;;;33.10;;
50429;SDS011;36359;41.556;-8.418;2024-01-10T13:06:05;37.93;;;31.10;;
50429;SDS011;36359;41.556;-8.418;2024-01-10T13:08:31;40.30;;;33.70;;
50429;SDS011;36359;41.556;-8.418;2024-01-10T13:10:59;33.97;;;30.27;;
50429;SDS011;36359;41.556;-8.418;2024-01-10T13:13:26;37.87;;;30.17;;
50429;SDS011;36359;41.556;-8.418;2024-01-10T13:15:51;33.70;;;29.50;;
50429;SDS011;36359;41.556;-8.418;2024-01-10T13:18:17;37.17;;;30.03;;
50429;SDS011;36359;41.556;-8.418;2024-01-10T13:20:44;37.33;;;31.20;;
50429;SDS011;36359;41.556;-8.418;2024-01-10T13:23:10;40.57;;;34.03;;
50429;SDS011;36359;41.556;-8.418;2024-01-10T13:25:37;47.40;;;40.60;;
50429;SDS011;36359;41.556;-8.418;2024-01-10T13:28:03;44.50;;;38.37;;
50429;SDS011;36359;41.556;-8.418;2024-01-10T13:30:29;45.00;;;37.87;;
50429;SDS011;36359;41.556;-8.418;2024-01-10T13:32:55;41.40;;;36.57;;
50429;SDS011;36359;41.556;-8.418;2024-01-10T13:35:23;41.47;;;34.13;;
50429;SDS011;36359;41.556;-8.418;2024-01-10T13:37:49;41.57;;;33.77;;
50429;SDS011;36359;41.556;-8.418;2024-01-10T13:40:15;37.67;;;30.80;;
50429;SDS011;36359;41.556;-8.418;2024-01-10T13:42:45;33.33;;;27.10;;
50429;SDS011;36359;41.556;-8.418;2024-01-10T13:45:10;31.40;;;26.10;;
50429;SDS011;36359;41.556;-8.418;2024-01-10T13:47:37;31.47;;;24.27;;
50429;SDS011;36359;41.556;-8.418;2024-01-10T13:50:06;26.40;;;21.80;;
50429;SDS011;36359;41.556;-8.418;2024-01-10T13:52:34;27.00;;;24.05;;
50429;SDS011;36359;41.556;-8.418;2024-01-10T13:55:00;28.70;;;23.13;;
50429;SDS011;36359;41.556;-8.418;2024-01-10T13:57:26;31.93;;;24.93;;
50429;SDS011;36359;41.556;-8.418;2024-01-10T13:59:52;31.27;;;24.30;;
50429;SDS011;36359;41.556;-8.418;2024-01-10T14:02:22;27.57;;;22.27;;
50429;SDS011;36359;41.556;-8.418;2024-01-10T14:04:48;25.67;;;17.87;;
50429;SDS011;36359;41.556;-8.418;2024-01-10T14:07:14;24.00;;;18.83;;
50429;SDS011;36359;41.556;-8.418;2024-01-10T14:09:39;36.93;;;26.53;;
50429;SDS011;36359;41.556;-8.418;2024-01-10T14:12:05;47.03;;;33.07;;
50429;SDS011;36359;41.556;-8.418;2024-01-10T14:14:31;43.07;;;30.93;;
50429;SDS011;36359;41.556;-8.418;2024-01-10T14:16:59;45.67;;;33.23;;
50429;SDS011;36359;41.556;-8.418;2024-01-10T14:19:25;33.77;;;24.93;;
50429;SDS011;36359;41.556;-8.418;2024-01-10T14:21:51;35.27;;;25.83;;
50429;SDS011;36359;41.556;-8.418;2024-01-10T14:24:17;25.77;;;18.00;;